createdAt,value
2019-05-01T00:03:50.151Z,95.49
2019-05-01T00:08:53.540Z,93.88
2019-05-01T00:13:56.529Z,93.51
2019-05-01T00:18:59.515Z,94.43
2019-05-01T00:24:02.525Z,95.40
2019-05-01T00:29:05.793Z,96.47
2019-05-01T00:34:08.769Z,96.45
2019-05-01T00:39:13.351Z,96.17
2019-05-01T00:44:16.306Z,96.70
2019-05-01T00:49:19.351Z,98.21
2019-05-01T00:54:23.025Z,98.64
2019-05-01T00:59:45.594Z,97.59
2019-05-01T01:04:48.676Z,97.89
2019-05-01T01:09:51.864Z,98.63
2019-05-01T01:14:54.860Z,98.98
2019-05-01T01:19:57.998Z,100.00
2019-05-01T01:25:01.809Z,100.00
2019-05-01T01:30:07.069Z,100.00
2019-05-01T01:35:10.048Z,99.38
2019-05-01T01:40:13.904Z,98.95
2019-05-01T01:45:23.479Z,99.10
2019-05-01T01:50:26.678Z,99.29
2019-05-01T01:55:29.759Z,99.11
2019-05-01T02:00:49.705Z,99.17
2019-05-01T02:05:52.874Z,99.19
2019-05-01T02:10:56.114Z,99.17
2019-05-01T02:15:59.072Z,99.36
2019-05-01T02:21:02.062Z,99.70
2019-05-01T02:26:06.759Z,99.89
2019-05-01T02:31:27.435Z,99.75
2019-05-01T02:36:26.306Z,99.81
2019-05-01T02:41:35.417Z,100.00
2019-05-01T02:46:43.776Z,100.00
2019-05-01T02:51:49.413Z,100.00
2019-05-01T02:56:58.380Z,100.00
2019-05-01T03:02:03.431Z,99.92
2019-05-01T03:07:08.598Z,99.68
2019-05-01T03:12:16.576Z,99.59
2019-05-01T03:17:38.924Z,99.31
2019-05-01T03:23:02.228Z,99.39
2019-05-01T03:28:05.658Z,99.37
2019-05-01T03:33:09.116Z,99.48
2019-05-01T03:38:12.556Z,99.49
2019-05-01T03:43:16.194Z,99.42
2019-05-01T03:48:19.999Z,99.47
2019-05-01T03:53:24.625Z,99.34
2019-05-01T03:58:28.198Z,99.23
2019-05-01T04:03:35.430Z,99.04
2019-05-01T04:08:38.699Z,98.93
2019-05-01T04:13:41.898Z,98.86
2019-05-01T04:18:45.495Z,98.84
2019-05-01T04:23:49.419Z,98.72
2019-05-01T04:29:02.924Z,98.74
2019-05-01T04:34:12.817Z,98.75
2019-05-01T04:39:15.905Z,98.29
2019-05-01T04:44:19.678Z,97.95
2019-05-01T04:49:23.184Z,97.88
2019-05-01T04:54:26.834Z,97.54
2019-05-01T04:59:30.263Z,97.27
2019-05-01T05:04:33.602Z,96.57
2019-05-01T05:09:44.643Z,96.13
2019-05-01T05:14:52.577Z,95.61
2019-05-01T05:19:56.193Z,95.51
2019-05-01T05:24:59.807Z,94.27
2019-05-01T05:30:03.740Z,95.09
2019-05-01T05:35:08.627Z,94.63
2019-05-01T05:40:11.989Z,93.74
2019-05-01T05:45:14.995Z,93.33
2019-05-01T05:50:20.834Z,93.62
2019-05-01T05:55:34.398Z,94.25
2019-05-01T06:01:02.897Z,94.28
2019-05-01T06:06:30.329Z,94.12
2019-05-01T06:11:54.994Z,92.89
2019-05-01T06:17:14.553Z,92.85
2019-05-01T06:22:40.730Z,91.71
2019-05-01T06:27:44.727Z,90.94
2019-05-01T06:32:48.657Z,88.41
2019-05-01T06:38:05.763Z,85.97
2019-05-01T06:43:25.214Z,86.43
2019-05-01T06:48:28.221Z,86.24
2019-05-01T06:53:31.325Z,85.38
2019-05-01T06:58:34.619Z,85.00
2019-05-01T07:03:40.747Z,82.94
2019-05-01T07:08:42.741Z,83.35
2019-05-01T07:13:55.397Z,81.91
2019-05-01T07:19:05.721Z,80.79
2019-05-01T07:24:04.013Z,78.85
2019-05-01T07:29:11.064Z,78.83
2019-05-01T07:34:16.604Z,76.14
2019-05-01T07:39:19.587Z,75.91
2019-05-01T07:44:38.889Z,75.66
2019-05-01T07:49:57.487Z,75.59
2019-05-01T07:55:00.748Z,75.58
2019-05-01T08:00:09.286Z,69.92
2019-05-01T08:05:12.303Z,66.59
2019-05-01T08:10:15.655Z,62.05
2019-05-01T08:15:22.621Z,58.86
2019-05-01T08:20:30.207Z,54.90
2019-05-01T08:25:34.379Z,52.24
2019-05-01T08:31:03.201Z,53.67
2019-05-01T08:36:11.670Z,50.41
2019-05-01T08:41:12.995Z,44.54
2019-05-01T08:46:38.526Z,46.91
2019-05-01T08:51:41.776Z,46.78
2019-05-01T08:56:45.044Z,46.60
2019-05-01T09:01:51.906Z,50.74
2019-05-01T09:06:53.953Z,43.57
2019-05-01T09:11:57.098Z,43.73
2019-05-01T09:17:00.059Z,44.65
2019-05-01T09:22:03.233Z,40.44
2019-05-01T09:27:31.847Z,43.95
2019-05-01T09:32:35.192Z,39.37
2019-05-01T09:37:39.433Z,40.00
2019-05-01T09:42:42.433Z,37.96
2019-05-01T09:47:45.624Z,39.30
2019-05-01T09:52:59.738Z,39.95
2019-05-01T09:58:04.032Z,37.70
2019-05-01T10:03:07.685Z,39.77
2019-05-01T10:08:10.822Z,34.68
2019-05-01T10:13:17.614Z,36.00
2019-05-01T10:18:19.015Z,37.38
2019-05-01T10:23:22.068Z,35.85
2019-05-01T10:28:40.264Z,35.32
2019-05-01T10:33:46.088Z,39.16
2019-05-01T10:38:49.215Z,35.22
2019-05-01T10:43:52.238Z,34.21
2019-05-01T10:48:57.365Z,32.58
2019-05-01T10:54:00.495Z,35.97
2019-05-01T10:59:03.586Z,32.52
2019-05-01T11:04:06.807Z,31.22
2019-05-01T11:09:09.932Z,32.14
2019-05-01T11:14:13.210Z,30.66
2019-05-01T11:19:16.238Z,30.71
2019-05-01T11:24:19.434Z,29.27
2019-05-01T11:29:22.429Z,29.80
2019-05-01T11:34:50.622Z,29.07
2019-05-01T11:39:58.036Z,28.31
2019-05-01T11:45:01.015Z,28.69
2019-05-01T11:50:05.345Z,26.54
2019-05-01T11:55:08.458Z,30.00
2019-05-01T12:00:14.199Z,29.24
2019-05-01T12:05:17.268Z,31.67
2019-05-01T12:10:20.341Z,29.86
2019-05-01T12:15:23.620Z,33.38
2019-05-01T12:20:26.563Z,32.68
2019-05-01T12:25:29.603Z,34.65
2019-05-01T12:30:32.705Z,33.66
2019-05-01T12:35:35.738Z,33.47
2019-05-01T12:40:38.710Z,31.91
2019-05-01T12:45:45.057Z,31.11
2019-05-01T12:50:49.980Z,32.87
2019-05-01T12:56:15.561Z,32.23
2019-05-01T13:01:18.866Z,32.00
2019-05-01T13:06:21.959Z,28.79
2019-05-01T13:11:24.910Z,29.68
2019-05-01T13:16:28.112Z,29.42
2019-05-01T13:21:31.081Z,30.80
2019-05-01T13:26:42.194Z,29.75
2019-05-01T13:31:52.793Z,29.57
2019-05-01T13:37:02.886Z,30.06
2019-05-01T13:42:00.825Z,30.80
2019-05-01T13:47:03.845Z,29.75
2019-05-01T13:52:06.955Z,30.19
2019-05-01T13:57:10.132Z,31.48
2019-05-01T14:02:13.332Z,30.63
2019-05-01T14:07:17.094Z,30.84
2019-05-01T14:12:20.450Z,31.57
2019-05-01T14:17:23.554Z,32.60
2019-05-01T14:22:46.133Z,31.93
2019-05-01T14:27:49.107Z,32.55
2019-05-01T14:32:52.131Z,32.38
2019-05-01T14:37:55.538Z,32.27
2019-05-01T14:42:58.974Z,31.82
2019-05-01T14:48:01.975Z,32.16
2019-05-01T14:53:05.325Z,30.93
2019-05-01T14:58:08.516Z,32.70
2019-05-01T15:03:11.672Z,33.75
2019-05-01T15:08:14.638Z,32.41
2019-05-01T15:13:32.614Z,33.20
2019-05-01T15:18:50.334Z,32.90
2019-05-01T15:23:54.019Z,32.20
2019-05-01T15:28:57.143Z,30.29
2019-05-01T15:34:00.448Z,31.60
2019-05-01T15:39:08.564Z,30.67
2019-05-01T15:44:23.623Z,31.56
2019-05-01T15:49:27.239Z,31.66
2019-05-01T15:54:30.802Z,31.84
2019-05-01T15:59:33.880Z,33.01
2019-05-01T16:04:37.143Z,32.94
2019-05-01T16:09:40.313Z,34.53
2019-05-01T16:14:48.417Z,33.82
2019-05-01T16:19:51.556Z,35.94
2019-05-01T16:24:54.639Z,35.94
2019-05-01T16:29:57.851Z,36.95
2019-05-01T16:35:01.068Z,37.46
2019-05-01T16:40:12.573Z,39.88
2019-05-01T16:45:16.274Z,37.36
2019-05-01T16:50:21.928Z,39.04
2019-05-01T16:55:25.120Z,39.14
2019-05-01T17:00:59.317Z,39.48
2019-05-01T17:06:15.639Z,39.47
2019-05-01T17:11:21.626Z,40.26
2019-05-01T17:16:25.556Z,39.80
2019-05-01T17:21:28.614Z,40.38
2019-05-01T17:26:31.651Z,41.05
2019-05-01T17:31:35.039Z,41.21
2019-05-01T17:36:38.182Z,41.78
2019-05-01T17:41:41.888Z,42.03
2019-05-01T17:46:46.891Z,42.04
2019-05-01T17:51:49.962Z,43.31
2019-05-01T17:56:53.780Z,43.36
2019-05-01T18:02:11.583Z,43.89
2019-05-01T18:07:14.861Z,44.02
2019-05-01T18:12:18.176Z,45.18
2019-05-01T18:17:21.601Z,46.77
2019-05-01T18:22:59.859Z,47.71
2019-05-01T18:28:25.001Z,47.44
2019-05-01T18:33:28.160Z,49.63
2019-05-01T18:38:50.803Z,52.44
2019-05-01T18:43:53.947Z,53.51
2019-05-01T18:48:57.016Z,55.06
2019-05-01T18:54:00.299Z,52.41
2019-05-01T18:59:03.647Z,54.18
2019-05-01T19:04:06.874Z,51.48
2019-05-01T19:09:15.177Z,54.92
2019-05-01T19:14:14.851Z,53.34
2019-05-01T19:19:18.166Z,54.98
2019-05-01T19:24:21.317Z,55.19
2019-05-01T19:29:26.645Z,54.54
2019-05-01T19:34:29.556Z,52.15
2019-05-01T19:39:42.944Z,54.68
2019-05-01T19:44:37.581Z,52.23
2019-05-01T19:49:40.684Z,51.12
2019-05-01T19:54:43.741Z,50.90
2019-05-01T19:59:46.726Z,51.99
2019-05-01T20:04:50.565Z,50.95
2019-05-01T20:09:57.072Z,51.88
2019-05-01T20:14:59.743Z,53.29
2019-05-01T20:20:03.774Z,56.53
2019-05-01T20:25:06.934Z,60.88
2019-05-01T20:30:10.496Z,65.54
2019-05-01T20:35:13.597Z,73.03
2019-05-01T20:40:17.051Z,78.57
2019-05-01T20:45:20.433Z,80.94
2019-05-01T20:50:23.626Z,81.19
2019-05-01T20:55:26.600Z,82.29
2019-05-01T21:00:29.764Z,82.66
2019-05-01T21:05:39.648Z,83.10
2019-05-01T21:10:53.183Z,82.67
2019-05-01T21:16:01.122Z,83.55
2019-05-01T21:21:03.336Z,83.45
2019-05-01T21:26:06.352Z,84.21
2019-05-01T21:31:09.479Z,83.89
2019-05-01T21:36:12.603Z,84.62
2019-05-01T21:41:18.335Z,84.97
2019-05-01T21:46:22.731Z,85.83
2019-05-01T21:51:26.084Z,85.69
2019-05-01T21:56:29.172Z,85.73
2019-05-01T22:01:34.794Z,86.09
2019-05-01T22:06:37.175Z,85.93
2019-05-01T22:11:43.511Z,86.16
2019-05-01T22:16:47.219Z,86.16
2019-05-01T22:22:09.870Z,86.32
2019-05-01T22:27:20.572Z,86.49
2019-05-01T22:32:34.424Z,87.03
2019-05-01T22:37:37.484Z,87.55
2019-05-01T22:42:41.005Z,87.86
2019-05-01T22:47:46.107Z,88.60
2019-05-01T22:52:48.936Z,89.59
2019-05-01T22:57:52.454Z,89.80
2019-05-01T23:02:59.986Z,90.06
2019-05-01T23:08:02.471Z,89.87
2019-05-01T23:13:06.795Z,90.16
2019-05-01T23:18:15.361Z,90.14
2019-05-01T23:23:17.109Z,90.22
2019-05-01T23:28:20.589Z,90.54
2019-05-01T23:33:23.579Z,91.06
2019-05-01T23:38:26.716Z,91.22
2019-05-01T23:43:29.681Z,90.87
2019-05-01T23:48:32.644Z,90.41
2019-05-01T23:53:35.717Z,89.84
2019-05-01T23:58:38.776Z,89.60
